sensor_id;sensor_type;location;lat;lon;timestamp;P1;durP1;ratioP1;P2;durP2;ratioP2
78728;SDS011;68252;44.944;20.218;2023-12-20T00:00:38;102.90;;;51.40;;
78728;SDS011;68252;44.944;20.218;2023-12-20T00:03:04;102.97;;;50.00;;
78728;SDS011;68252;44.944;20.218;2023-12-20T00:05:30;102.93;;;50.88;;
78728;SDS011;68252;44.944;20.218;2023-12-20T00:07:57;100.40;;;51.80;;
78728;SDS011;68252;44.944;20.218;2023-12-20T00:10:23;96.20;;;48.78;;
78728;SDS011;68252;44.944;20.218;2023-12-20T00:12:49;95.85;;;50.08;;
78728;SDS011;68252;44.944;20.218;2023-12-20T00:15:15;96.43;;;50.22;;
78728;SDS011;68252;44.944;20.218;2023-12-20T00:17:41;112.60;;;55.38;;
78728;SDS011;68252;44.944;20.218;2023-12-20T00:20:08;103.93;;;52.92;;
78728;SDS011;68252;44.944;20.218;2023-12-20T00:22:34;106.47;;;52.60;;
78728;SDS011;68252;44.944;20.218;2023-12-20T00:25:00;101.60;;;51.72;;
78728;SDS011;68252;44.944;20.218;2023-12-20T00:27:26;98.15;;;48.97;;
78728;SDS011;68252;44.944;20.218;2023-12-20T00:29:52;107.38;;;54.50;;
78728;SDS011;68252;44.944;20.218;2023-12-20T00:32:18;111.32;;;52.95;;
78728;SDS011;68252;44.944;20.218;2023-12-20T00:34:44;109.43;;;53.92;;
78728;SDS011;68252;44.944;20.218;2023-12-20T00:37:10;108.22;;;52.95;;
78728;SDS011;68252;44.944;20.218;2023-12-20T00:39:36;102.13;;;51.50;;
78728;SDS011;68252;44.944;20.218;2023-12-20T00:42:02;102.40;;;49.33;;
78728;SDS011;68252;44.944;20.218;2023-12-20T00:44:28;104.22;;;51.08;;
78728;SDS011;68252;44.944;20.218;2023-12-20T00:46:55;106.28;;;51.70;;
78728;SDS011;68252;44.944;20.218;2023-12-20T00:49:21;97.95;;;49.55;;
78728;SDS011;68252;44.944;20.218;2023-12-20T00:51:47;103.28;;;51.53;;
78728;SDS011;68252;44.944;20.218;2023-12-20T00:54:15;104.03;;;50.58;;
78728;SDS011;68252;44.944;20.218;2023-12-20T00:56:41;105.45;;;50.28;;
78728;SDS011;68252;44.944;20.218;2023-12-20T00:59:07;106.38;;;50.10;;
78728;SDS011;68252;44.944;20.218;2023-12-20T01:01:33;101.93;;;50.10;;
78728;SDS011;68252;44.944;20.218;2023-12-20T01:03:59;103.35;;;49.88;;
78728;SDS011;68252;44.944;20.218;2023-12-20T01:06:25;110.45;;;51.35;;
78728;SDS011;68252;44.944;20.218;2023-12-20T01:08:52;108.53;;;51.10;;
78728;SDS011;68252;44.944;20.218;2023-12-20T01:11:18;104.72;;;50.90;;
78728;SDS011;68252;44.944;20.218;2023-12-20T01:13:47;102.70;;;49.47;;
78728;SDS011;68252;44.944;20.218;2023-12-20T01:16:13;104.28;;;50.65;;
78728;SDS011;68252;44.944;20.218;2023-12-20T01:18:39;99.80;;;49.42;;
78728;SDS011;68252;44.944;20.218;2023-12-20T01:21:05;99.30;;;49.30;;
78728;SDS011;68252;44.944;20.218;2023-12-20T01:23:31;101.30;;;48.40;;
78728;SDS011;68252;44.944;20.218;2023-12-20T01:25:58;100.72;;;50.80;;
78728;SDS011;68252;44.944;20.218;2023-12-20T01:28:27;92.60;;;46.13;;
78728;SDS011;68252;44.944;20.218;2023-12-20T01:30:53;106.38;;;50.50;;
78728;SDS011;68252;44.944;20.218;2023-12-20T01:33:20;115.13;;;49.25;;
78728;SDS011;68252;44.944;20.218;2023-12-20T01:35:46;91.10;;;45.90;;
78728;SDS011;68252;44.944;20.218;2023-12-20T01:38:12;87.38;;;46.13;;
78728;SDS011;68252;44.944;20.218;2023-12-20T01:40:38;94.40;;;46.22;;
78728;SDS011;68252;44.944;20.218;2023-12-20T01:43:06;93.90;;;47.00;;
78728;SDS011;68252;44.944;20.218;2023-12-20T01:45:37;89.43;;;46.58;;
78728;SDS011;68252;44.944;20.218;2023-12-20T01:48:04;92.20;;;45.90;;
78728;SDS011;68252;44.944;20.218;2023-12-20T01:50:31;92.30;;;48.22;;
78728;SDS011;68252;44.944;20.218;2023-12-20T01:52:57;97.03;;;47.50;;
78728;SDS011;68252;44.944;20.218;2023-12-20T01:55:25;103.60;;;51.70;;
78728;SDS011;68252;44.944;20.218;2023-12-20T01:57:53;102.45;;;49.55;;
78728;SDS011;68252;44.944;20.218;2023-12-20T02:00:19;105.57;;;51.85;;
78728;SDS011;68252;44.944;20.218;2023-12-20T02:02:48;108.75;;;52.17;;
78728;SDS011;68252;44.944;20.218;2023-12-20T02:05:16;105.90;;;51.30;;
78728;SDS011;68252;44.944;20.218;2023-12-20T02:07:42;100.30;;;50.20;;
78728;SDS011;68252;44.944;20.218;2023-12-20T02:10:08;116.03;;;54.17;;
78728;SDS011;68252;44.944;20.218;2023-12-20T02:12:35;110.57;;;54.25;;
78728;SDS011;68252;44.944;20.218;2023-12-20T02:15:01;105.38;;;51.22;;
78728;SDS011;68252;44.944;20.218;2023-12-20T02:17:27;101.88;;;50.85;;
78728;SDS011;68252;44.944;20.218;2023-12-20T02:19:53;104.75;;;51.20;;
78728;SDS011;68252;44.944;20.218;2023-12-20T02:22:19;106.00;;;52.55;;
78728;SDS011;68252;44.944;20.218;2023-12-20T02:24:45;99.10;;;50.55;;
78728;SDS011;68252;44.944;20.218;2023-12-20T02:27:11;105.60;;;49.88;;
78728;SDS011;68252;44.944;20.218;2023-12-20T02:29:38;99.95;;;50.08;;
78728;SDS011;68252;44.944;20.218;2023-12-20T02:32:04;110.38;;;50.55;;
78728;SDS011;68252;44.944;20.218;2023-12-20T02:34:30;97.88;;;50.05;;
78728;SDS011;68252;44.944;20.218;2023-12-20T02:36:56;96.55;;;50.47;;
78728;SDS011;68252;44.944;20.218;2023-12-20T02:39:22;101.80;;;49.05;;
78728;SDS011;68252;44.944;20.218;2023-12-20T02:41:48;101.18;;;49.30;;
78728;SDS011;68252;44.944;20.218;2023-12-20T02:44:14;99.95;;;49.92;;
78728;SDS011;68252;44.944;20.218;2023-12-20T02:46:40;98.00;;;48.67;;
78728;SDS011;68252;44.944;20.218;2023-12-20T02:49:07;98.47;;;49.15;;
78728;SDS011;68252;44.944;20.218;2023-12-20T02:51:33;102.25;;;49.42;;
78728;SDS011;68252;44.944;20.218;2023-12-20T02:53:59;103.10;;;48.97;;
78728;SDS011;68252;44.944;20.218;2023-12-20T02:56:25;98.72;;;49.47;;
78728;SDS011;68252;44.944;20.218;2023-12-20T02:58:51;95.93;;;48.40;;
78728;SDS011;68252;44.944;20.218;2023-12-20T03:01:17;109.95;;;50.50;;
78728;SDS011;68252;44.944;20.218;2023-12-20T03:03:43;102.30;;;51.00;;
78728;SDS011;68252;44.944;20.218;2023-12-20T03:06:09;95.90;;;49.35;;
78728;SDS011;68252;44.944;20.218;2023-12-20T03:08:36;103.65;;;50.80;;
78728;SDS011;68252;44.944;20.218;2023-12-20T03:11:02;101.13;;;49.83;;
78728;SDS011;68252;44.944;20.218;2023-12-20T03:13:28;103.90;;;51.60;;
78728;SDS011;68252;44.944;20.218;2023-12-20T03:15:54;100.28;;;50.15;;
78728;SDS011;68252;44.944;20.218;2023-12-20T03:18:20;95.30;;;47.55;;
78728;SDS011;68252;44.944;20.218;2023-12-20T03:20:46;100.00;;;49.83;;
78728;SDS011;68252;44.944;20.218;2023-12-20T03:23:14;96.53;;;49.80;;
78728;SDS011;68252;44.944;20.218;2023-12-20T03:25:41;94.10;;;49.03;;
78728;SDS011;68252;44.944;20.218;2023-12-20T03:28:07;99.65;;;48.25;;
78728;SDS011;68252;44.944;20.218;2023-12-20T03:30:33;101.20;;;49.97;;
78728;SDS011;68252;44.944;20.218;2023-12-20T03:32:59;97.68;;;48.10;;
78728;SDS011;68252;44.944;20.218;2023-12-20T03:35:25;101.53;;;51.63;;
78728;SDS011;68252;44.944;20.218;2023-12-20T03:37:51;103.38;;;51.33;;
78728;SDS011;68252;44.944;20.218;2023-12-20T03:40:17;97.82;;;51.88;;
78728;SDS011;68252;44.944;20.218;2023-12-20T03:42:43;104.38;;;52.72;;
78728;SDS011;68252;44.944;20.218;2023-12-20T03:45:09;101.95;;;50.80;;
78728;SDS011;68252;44.944;20.218;2023-12-20T03:47:35;102.57;;;51.05;;
78728;SDS011;68252;44.944;20.218;2023-12-20T03:50:01;102.93;;;52.83;;
78728;SDS011;68252;44.944;20.218;2023-12-20T03:52:27;106.05;;;53.33;;
78728;SDS011;68252;44.944;20.218;2023-12-20T03:54:54;97.20;;;49.85;;
78728;SDS011;68252;44.944;20.218;2023-12-20T03:57:20;105.13;;;52.70;;
78728;SDS011;68252;44.944;20.218;2023-12-20T03:59:46;105.10;;;52.40;;
78728;SDS011;68252;44.944;20.218;2023-12-20T04:02:12;104.13;;;50.20;;
78728;SDS011;68252;44.944;20.218;2023-12-20T04:04:38;109.25;;;53.08;;
78728;SDS011;68252;44.944;20.218;2023-12-20T04:07:04;106.38;;;52.08;;
78728;SDS011;68252;44.944;20.218;2023-12-20T04:09:30;108.30;;;50.28;;
78728;SDS011;68252;44.944;20.218;2023-12-20T04:11:56;108.65;;;51.67;;
78728;SDS011;68252;44.944;20.218;2023-12-20T04:14:25;146.25;;;61.40;;
78728;SDS011;68252;44.944;20.218;2023-12-20T04:16:51;119.15;;;57.78;;
78728;SDS011;68252;44.944;20.218;2023-12-20T04:19:17;126.65;;;59.25;;
78728;SDS011;68252;44.944;20.218;2023-12-20T04:21:43;118.88;;;56.35;;
78728;SDS011;68252;44.944;20.218;2023-12-20T04:24:09;125.18;;;56.70;;
78728;SDS011;68252;44.944;20.218;2023-12-20T04:26:35;113.65;;;53.17;;
78728;SDS011;68252;44.944;20.218;2023-12-20T04:29:06;114.40;;;54.13;;
78728;SDS011;68252;44.944;20.218;2023-12-20T04:31:32;117.40;;;53.75;;
78728;SDS011;68252;44.944;20.218;2023-12-20T04:33:58;115.47;;;54.60;;
78728;SDS011;68252;44.944;20.218;2023-12-20T04:36:24;109.32;;;52.78;;
78728;SDS011;68252;44.944;20.218;2023-12-20T04:38:52;111.18;;;52.75;;
78728;SDS011;68252;44.944;20.218;2023-12-20T04:41:18;115.57;;;53.28;;
78728;SDS011;68252;44.944;20.218;2023-12-20T04:43:44;109.63;;;54.92;;
78728;SDS011;68252;44.944;20.218;2023-12-20T04:46:10;103.40;;;52.50;;
78728;SDS011;68252;44.944;20.218;2023-12-20T04:48:36;105.55;;;52.15;;
78728;SDS011;68252;44.944;20.218;2023-12-20T04:51:03;102.20;;;51.10;;
78728;SDS011;68252;44.944;20.218;2023-12-20T04:53:29;124.80;;;55.05;;
78728;SDS011;68252;44.944;20.218;2023-12-20T04:55:55;119.88;;;55.15;;
78728;SDS011;68252;44.944;20.218;2023-12-20T04:58:21;110.93;;;52.28;;
78728;SDS011;68252;44.944;20.218;2023-12-20T05:00:48;104.88;;;51.65;;
78728;SDS011;68252;44.944;20.218;2023-12-20T05:03:14;118.18;;;54.10;;
78728;SDS011;68252;44.944;20.218;2023-12-20T05:05:40;105.85;;;49.75;;
78728;SDS011;68252;44.944;20.218;2023-12-20T05:08:06;138.75;;;60.03;;
78728;SDS011;68252;44.944;20.218;2023-12-20T05:10:32;109.78;;;51.70;;
78728;SDS011;68252;44.944;20.218;2023-12-20T05:12:58;99.63;;;51.55;;
78728;SDS011;68252;44.944;20.218;2023-12-20T05:15:24;111.82;;;50.75;;
78728;SDS011;68252;44.944;20.218;2023-12-20T05:17:50;108.82;;;50.80;;
78728;SDS011;68252;44.944;20.218;2023-12-20T05:20:16;127.72;;;56.42;;
78728;SDS011;68252;44.944;20.218;2023-12-20T05:22:42;124.20;;;55.13;;
78728;SDS011;68252;44.944;20.218;2023-12-20T05:25:09;123.75;;;53.90;;
78728;SDS011;68252;44.944;20.218;2023-12-20T05:27:36;117.20;;;55.05;;
78728;SDS011;68252;44.944;20.218;2023-12-20T05:30:02;113.07;;;55.63;;
78728;SDS011;68252;44.944;20.218;2023-12-20T05:32:29;107.75;;;53.33;;
78728;SDS011;68252;44.944;20.218;2023-12-20T05:34:56;107.15;;;52.42;;
78728;SDS011;68252;44.944;20.218;2023-12-20T05:37:22;115.35;;;52.97;;
78728;SDS011;68252;44.944;20.218;2023-12-20T05:39:48;119.32;;;55.08;;
78728;SDS011;68252;44.944;20.218;2023-12-20T05:42:14;117.25;;;51.35;;
78728;SDS011;68252;44.944;20.218;2023-12-20T05:44:40;105.65;;;52.63;;
78728;SDS011;68252;44.944;20.218;2023-12-20T05:47:06;118.85;;;56.03;;
78728;SDS011;68252;44.944;20.218;2023-12-20T05:49:32;132.52;;;60.75;;
78728;SDS011;68252;44.944;20.218;2023-12-20T05:51:58;143.68;;;57.88;;
78728;SDS011;68252;44.944;20.218;2023-12-20T05:54:25;122.05;;;54.08;;
78728;SDS011;68252;44.944;20.218;2023-12-20T05:56:51;101.15;;;51.83;;
78728;SDS011;68252;44.944;20.218;2023-12-20T05:59:17;102.45;;;50.15;;
78728;SDS011;68252;44.944;20.218;2023-12-20T06:01:43;102.32;;;52.63;;
78728;SDS011;68252;44.944;20.218;2023-12-20T06:04:09;117.28;;;56.00;;
78728;SDS011;68252;44.944;20.218;2023-12-20T06:06:40;108.78;;;54.50;;
78728;SDS011;68252;44.944;20.218;2023-12-20T06:09:06;114.93;;;56.60;;
78728;SDS011;68252;44.944;20.218;2023-12-20T06:11:32;130.48;;;58.08;;
78728;SDS011;68252;44.944;20.218;2023-12-20T06:13:58;122.60;;;56.90;;
78728;SDS011;68252;44.944;20.218;2023-12-20T06:16:24;115.60;;;58.95;;
78728;SDS011;68252;44.944;20.218;2023-12-20T06:18:50;124.85;;;59.00;;
78728;SDS011;68252;44.944;20.218;2023-12-20T06:21:16;121.75;;;57.40;;
78728;SDS011;68252;44.944;20.218;2023-12-20T06:23:42;122.03;;;57.83;;
78728;SDS011;68252;44.944;20.218;2023-12-20T06:26:08;112.40;;;55.40;;
78728;SDS011;68252;44.944;20.218;2023-12-20T06:28:34;126.45;;;58.30;;
78728;SDS011;68252;44.944;20.218;2023-12-20T06:31:01;178.48;;;75.70;;
78728;SDS011;68252;44.944;20.218;2023-12-20T06:33:28;151.13;;;69.63;;
78728;SDS011;68252;44.944;20.218;2023-12-20T06:35:56;146.82;;;72.70;;
78728;SDS011;68252;44.944;20.218;2023-12-20T06:38:22;132.70;;;65.35;;
78728;SDS011;68252;44.944;20.218;2023-12-20T06:40:48;135.80;;;66.70;;
78728;SDS011;68252;44.944;20.218;2023-12-20T06:43:16;149.88;;;71.50;;
78728;SDS011;68252;44.944;20.218;2023-12-20T06:45:42;153.23;;;71.38;;
78728;SDS011;68252;44.944;20.218;2023-12-20T06:48:08;166.30;;;76.40;;
78728;SDS011;68252;44.944;20.218;2023-12-20T06:50:37;145.27;;;71.75;;
78728;SDS011;68252;44.944;20.218;2023-12-20T06:53:05;153.07;;;76.50;;
78728;SDS011;68252;44.944;20.218;2023-12-20T06:55:32;175.88;;;76.85;;
78728;SDS011;68252;44.944;20.218;2023-12-20T06:57:58;161.73;;;75.30;;
78728;SDS011;68252;44.944;20.218;2023-12-20T07:00:24;163.35;;;79.82;;
78728;SDS011;68252;44.944;20.218;2023-12-20T07:02:50;161.13;;;80.13;;
78728;SDS011;68252;44.944;20.218;2023-12-20T07:05:17;152.85;;;71.50;;
78728;SDS011;68252;44.944;20.218;2023-12-20T07:07:45;172.52;;;78.55;;
78728;SDS011;68252;44.944;20.218;2023-12-20T07:10:12;161.00;;;70.85;;
78728;SDS011;68252;44.944;20.218;2023-12-20T07:12:38;143.23;;;66.50;;
78728;SDS011;68252;44.944;20.218;2023-12-20T07:15:04;158.00;;;66.45;;
78728;SDS011;68252;44.944;20.218;2023-12-20T07:17:33;172.60;;;81.80;;
78728;SDS011;68252;44.944;20.218;2023-12-20T07:20:00;163.60;;;75.55;;
78728;SDS011;68252;44.944;20.218;2023-12-20T07:22:30;158.93;;;74.13;;
78728;SDS011;68252;44.944;20.218;2023-12-20T07:24:59;147.57;;;68.55;;
78728;SDS011;68252;44.944;20.218;2023-12-20T07:27:25;140.50;;;64.80;;
78728;SDS011;68252;44.944;20.218;2023-12-20T07:29:51;133.93;;;65.28;;
78728;SDS011;68252;44.944;20.218;2023-12-20T07:32:17;145.85;;;69.07;;
78728;SDS011;68252;44.944;20.218;2023-12-20T07:34:43;162.88;;;73.32;;
78728;SDS011;68252;44.944;20.218;2023-12-20T07:37:12;158.93;;;76.93;;
78728;SDS011;68252;44.944;20.218;2023-12-20T07:39:41;153.07;;;73.72;;
78728;SDS011;68252;44.944;20.218;2023-12-20T07:42:08;156.23;;;74.85;;
78728;SDS011;68252;44.944;20.218;2023-12-20T07:44:34;154.45;;;73.13;;
78728;SDS011;68252;44.944;20.218;2023-12-20T07:47:01;146.68;;;72.70;;
78728;SDS011;68252;44.944;20.218;2023-12-20T07:49:27;145.48;;;70.60;;
78728;SDS011;68252;44.944;20.218;2023-12-20T07:51:53;150.45;;;69.13;;
78728;SDS011;68252;44.944;20.218;2023-12-20T07:54:19;145.15;;;69.72;;
78728;SDS011;68252;44.944;20.218;2023-12-20T07:56:48;147.48;;;69.65;;
78728;SDS011;68252;44.944;20.218;2023-12-20T08:01:40;146.77;;;67.63;;
78728;SDS011;68252;44.944;20.218;2023-12-20T08:04:07;143.18;;;68.07;;
78728;SDS011;68252;44.944;20.218;2023-12-20T08:06:33;143.70;;;68.18;;
78728;SDS011;68252;44.944;20.218;2023-12-20T08:09:00;146.38;;;72.50;;
78728;SDS011;68252;44.944;20.218;2023-12-20T08:11:26;158.70;;;75.90;;
78728;SDS011;68252;44.944;20.218;2023-12-20T08:13:52;147.65;;;71.30;;
78728;SDS011;68252;44.944;20.218;2023-12-20T08:16:18;150.93;;;69.45;;
78728;SDS011;68252;44.944;20.218;2023-12-20T08:18:44;150.07;;;70.90;;
78728;SDS011;68252;44.944;20.218;2023-12-20T08:21:10;160.55;;;71.10;;
78728;SDS011;68252;44.944;20.218;2023-12-20T08:23:36;151.35;;;73.30;;
78728;SDS011;68252;44.944;20.218;2023-12-20T08:26:06;151.73;;;71.53;;
78728;SDS011;68252;44.944;20.218;2023-12-20T08:28:32;146.57;;;75.35;;
78728;SDS011;68252;44.944;20.218;2023-12-20T08:30:58;166.10;;;81.03;;
78728;SDS011;68252;44.944;20.218;2023-12-20T08:33:24;157.35;;;77.07;;
78728;SDS011;68252;44.944;20.218;2023-12-20T08:35:50;152.07;;;74.25;;
78728;SDS011;68252;44.944;20.218;2023-12-20T08:38:17;148.95;;;71.50;;
78728;SDS011;68252;44.944;20.218;2023-12-20T08:40:43;145.32;;;67.43;;
78728;SDS011;68252;44.944;20.218;2023-12-20T08:43:09;139.88;;;71.32;;
78728;SDS011;68252;44.944;20.218;2023-12-20T08:45:35;158.43;;;78.63;;
78728;SDS011;68252;44.944;20.218;2023-12-20T08:48:01;166.80;;;83.60;;
78728;SDS011;68252;44.944;20.218;2023-12-20T08:50:28;157.77;;;79.10;;
78728;SDS011;68252;44.944;20.218;2023-12-20T08:52:54;165.02;;;80.07;;
78728;SDS011;68252;44.944;20.218;2023-12-20T08:55:20;161.65;;;77.05;;
78728;SDS011;68252;44.944;20.218;2023-12-20T08:57:46;152.23;;;73.97;;
78728;SDS011;68252;44.944;20.218;2023-12-20T09:00:13;141.90;;;69.00;;
78728;SDS011;68252;44.944;20.218;2023-12-20T09:02:39;142.23;;;70.07;;
78728;SDS011;68252;44.944;20.218;2023-12-20T09:05:05;136.55;;;67.85;;
78728;SDS011;68252;44.944;20.218;2023-12-20T09:07:31;137.60;;;65.93;;
78728;SDS011;68252;44.944;20.218;2023-12-20T09:09:58;135.95;;;65.60;;
78728;SDS011;68252;44.944;20.218;2023-12-20T09:12:24;141.13;;;72.40;;
78728;SDS011;68252;44.944;20.218;2023-12-20T09:14:51;126.75;;;63.95;;
78728;SDS011;68252;44.944;20.218;2023-12-20T09:17:17;144.15;;;71.10;;
78728;SDS011;68252;44.944;20.218;2023-12-20T09:19:43;150.00;;;68.13;;
78728;SDS011;68252;44.944;20.218;2023-12-20T09:22:10;153.65;;;71.05;;
78728;SDS011;68252;44.944;20.218;2023-12-20T09:24:36;135.90;;;66.40;;
78728;SDS011;68252;44.944;20.218;2023-12-20T09:27:02;119.90;;;60.60;;
78728;SDS011;68252;44.944;20.218;2023-12-20T09:29:29;120.20;;;62.13;;
78728;SDS011;68252;44.944;20.218;2023-12-20T09:31:55;124.07;;;63.95;;
78728;SDS011;68252;44.944;20.218;2023-12-20T09:34:22;136.93;;;68.82;;
78728;SDS011;68252;44.944;20.218;2023-12-20T09:36:49;137.43;;;67.63;;
78728;SDS011;68252;44.944;20.218;2023-12-20T09:39:18;127.53;;;63.13;;
78728;SDS011;68252;44.944;20.218;2023-12-20T09:41:46;127.15;;;62.33;;
78728;SDS011;68252;44.944;20.218;2023-12-20T09:44:15;132.23;;;66.85;;
78728;SDS011;68252;44.944;20.218;2023-12-20T09:46:45;131.55;;;70.50;;
78728;SDS011;68252;44.944;20.218;2023-12-20T09:49:14;139.52;;;72.25;;
78728;SDS011;68252;44.944;20.218;2023-12-20T09:51:40;118.88;;;61.80;;
78728;SDS011;68252;44.944;20.218;2023-12-20T09:54:06;132.75;;;63.35;;
78728;SDS011;68252;44.944;20.218;2023-12-20T09:56:32;127.40;;;64.45;;
78728;SDS011;68252;44.944;20.218;2023-12-20T09:58:59;125.15;;;65.22;;
78728;SDS011;68252;44.944;20.218;2023-12-20T10:01:25;132.70;;;62.63;;
78728;SDS011;68252;44.944;20.218;2023-12-20T10:03:54;128.32;;;65.97;;
78728;SDS011;68252;44.944;20.218;2023-12-20T10:06:23;145.68;;;68.13;;
78728;SDS011;68252;44.944;20.218;2023-12-20T10:08:49;180.38;;;81.65;;
78728;SDS011;68252;44.944;20.218;2023-12-20T10:11:15;173.75;;;76.25;;
78728;SDS011;68252;44.944;20.218;2023-12-20T10:13:42;129.35;;;63.85;;
78728;SDS011;68252;44.944;20.218;2023-12-20T10:16:08;126.88;;;63.75;;
78728;SDS011;68252;44.944;20.218;2023-12-20T10:18:34;139.93;;;71.18;;
78728;SDS011;68252;44.944;20.218;2023-12-20T10:21:01;122.45;;;63.30;;
78728;SDS011;68252;44.944;20.218;2023-12-20T10:23:28;111.13;;;59.67;;
78728;SDS011;68252;44.944;20.218;2023-12-20T10:25:56;121.55;;;62.20;;
78728;SDS011;68252;44.944;20.218;2023-12-20T10:28:23;128.20;;;63.13;;
78728;SDS011;68252;44.944;20.218;2023-12-20T10:30:53;126.20;;;63.40;;
78728;SDS011;68252;44.944;20.218;2023-12-20T10:33:25;134.05;;;65.47;;
78728;SDS011;68252;44.944;20.218;2023-12-20T10:35:52;129.88;;;65.57;;
78728;SDS011;68252;44.944;20.218;2023-12-20T10:38:19;138.10;;;71.22;;
78728;SDS011;68252;44.944;20.218;2023-12-20T10:40:45;153.00;;;76.07;;
78728;SDS011;68252;44.944;20.218;2023-12-20T10:43:11;155.93;;;77.00;;
78728;SDS011;68252;44.944;20.218;2023-12-20T10:45:38;145.23;;;78.13;;
78728;SDS011;68252;44.944;20.218;2023-12-20T10:48:04;146.50;;;77.05;;
78728;SDS011;68252;44.944;20.218;2023-12-20T10:50:31;158.70;;;76.43;;
78728;SDS011;68252;44.944;20.218;2023-12-20T10:52:58;154.15;;;77.65;;
78728;SDS011;68252;44.944;20.218;2023-12-20T10:55:24;141.88;;;72.22;;
78728;SDS011;68252;44.944;20.218;2023-12-20T10:57:51;145.45;;;73.55;;
78728;SDS011;68252;44.944;20.218;2023-12-20T11:00:18;135.98;;;67.53;;
78728;SDS011;68252;44.944;20.218;2023-12-20T11:02:44;146.13;;;70.65;;
78728;SDS011;68252;44.944;20.218;2023-12-20T11:05:28;131.45;;;66.60;;
78728;SDS011;68252;44.944;20.218;2023-12-20T11:08:12;134.10;;;66.07;;
78728;SDS011;68252;44.944;20.218;2023-12-20T11:10:54;139.05;;;68.97;;
78728;SDS011;68252;44.944;20.218;2023-12-20T11:13:23;123.13;;;65.05;;
78728;SDS011;68252;44.944;20.218;2023-12-20T11:15:51;131.18;;;66.28;;
78728;SDS011;68252;44.944;20.218;2023-12-20T11:18:17;124.88;;;66.05;;
78728;SDS011;68252;44.944;20.218;2023-12-20T11:20:43;122.90;;;65.18;;
78728;SDS011;68252;44.944;20.218;2023-12-20T11:23:09;135.27;;;67.18;;
78728;SDS011;68252;44.944;20.218;2023-12-20T11:25:54;129.60;;;68.10;;
78728;SDS011;68252;44.944;20.218;2023-12-20T11:28:24;117.82;;;63.58;;
78728;SDS011;68252;44.944;20.218;2023-12-20T11:30:54;126.85;;;64.93;;
78728;SDS011;68252;44.944;20.218;2023-12-20T11:33:24;116.57;;;61.20;;
78728;SDS011;68252;44.944;20.218;2023-12-20T11:35:50;119.40;;;64.95;;
78728;SDS011;68252;44.944;20.218;2023-12-20T11:38:17;117.78;;;62.38;;
78728;SDS011;68252;44.944;20.218;2023-12-20T11:40:47;129.30;;;63.47;;
78728;SDS011;68252;44.944;20.218;2023-12-20T11:43:14;125.20;;;63.95;;
78728;SDS011;68252;44.944;20.218;2023-12-20T11:45:54;120.70;;;64.93;;
78728;SDS011;68252;44.944;20.218;2023-12-20T11:48:21;134.32;;;68.15;;
78728;SDS011;68252;44.944;20.218;2023-12-20T11:50:47;129.50;;;68.93;;
78728;SDS011;68252;44.944;20.218;2023-12-20T11:53:13;127.18;;;66.80;;
78728;SDS011;68252;44.944;20.218;2023-12-20T11:55:39;140.73;;;68.15;;
78728;SDS011;68252;44.944;20.218;2023-12-20T11:58:05;138.90;;;66.78;;
78728;SDS011;68252;44.944;20.218;2023-12-20T12:00:34;126.68;;;68.03;;
78728;SDS011;68252;44.944;20.218;2023-12-20T12:03:00;134.40;;;68.53;;
78728;SDS011;68252;44.944;20.218;2023-12-20T12:05:30;133.38;;;66.63;;
78728;SDS011;68252;44.944;20.218;2023-12-20T12:07:57;133.77;;;71.43;;
78728;SDS011;68252;44.944;20.218;2023-12-20T12:10:23;140.90;;;69.70;;
78728;SDS011;68252;44.944;20.218;2023-12-20T12:12:49;145.27;;;72.07;;
78728;SDS011;68252;44.944;20.218;2023-12-20T12:15:15;151.52;;;78.28;;
78728;SDS011;68252;44.944;20.218;2023-12-20T12:17:42;152.10;;;78.68;;
78728;SDS011;68252;44.944;20.218;2023-12-20T12:20:08;172.10;;;81.18;;
78728;SDS011;68252;44.944;20.218;2023-12-20T12:22:35;157.25;;;78.60;;
78728;SDS011;68252;44.944;20.218;2023-12-20T12:25:11;160.55;;;78.13;;
78728;SDS011;68252;44.944;20.218;2023-12-20T12:27:41;214.07;;;96.40;;
78728;SDS011;68252;44.944;20.218;2023-12-20T12:30:08;165.05;;;82.80;;
78728;SDS011;68252;44.944;20.218;2023-12-20T12:32:34;352.90;;;137.60;;
78728;SDS011;68252;44.944;20.218;2023-12-20T12:35:02;200.50;;;96.65;;
78728;SDS011;68252;44.944;20.218;2023-12-20T12:37:31;269.75;;;97.90;;
78728;SDS011;68252;44.944;20.218;2023-12-20T12:39:57;226.93;;;106.25;;
78728;SDS011;68252;44.944;20.218;2023-12-20T12:42:23;192.30;;;88.28;;
78728;SDS011;68252;44.944;20.218;2023-12-20T12:44:53;150.85;;;77.18;;
78728;SDS011;68252;44.944;20.218;2023-12-20T12:47:20;145.20;;;75.70;;
78728;SDS011;68252;44.944;20.218;2023-12-20T12:49:47;183.15;;;86.55;;
78728;SDS011;68252;44.944;20.218;2023-12-20T12:52:13;175.32;;;84.32;;
78728;SDS011;68252;44.944;20.218;2023-12-20T12:54:39;175.77;;;85.80;;
78728;SDS011;68252;44.944;20.218;2023-12-20T12:57:06;159.38;;;79.32;;
78728;SDS011;68252;44.944;20.218;2023-12-20T12:59:32;157.70;;;81.18;;
78728;SDS011;68252;44.944;20.218;2023-12-20T13:01:58;149.52;;;76.28;;
78728;SDS011;68252;44.944;20.218;2023-12-20T13:04:24;160.85;;;81.60;;
78728;SDS011;68252;44.944;20.218;2023-12-20T13:06:50;163.27;;;71.78;;
78728;SDS011;68252;44.944;20.218;2023-12-20T13:09:17;153.30;;;79.90;;
78728;SDS011;68252;44.944;20.218;2023-12-20T13:11:44;143.65;;;77.10;;
78728;SDS011;68252;44.944;20.218;2023-12-20T13:14:12;157.82;;;76.13;;
78728;SDS011;68252;44.944;20.218;2023-12-20T13:16:40;149.27;;;75.78;;
78728;SDS011;68252;44.944;20.218;2023-12-20T13:19:07;148.98;;;75.97;;
78728;SDS011;68252;44.944;20.218;2023-12-20T13:21:33;146.50;;;77.90;;
78728;SDS011;68252;44.944;20.218;2023-12-20T13:23:59;154.75;;;79.07;;
78728;SDS011;68252;44.944;20.218;2023-12-20T13:26:25;159.57;;;82.80;;
78728;SDS011;68252;44.944;20.218;2023-12-20T13:28:51;157.50;;;83.40;;
78728;SDS011;68252;44.944;20.218;2023-12-20T13:31:19;172.95;;;86.85;;
78728;SDS011;68252;44.944;20.218;2023-12-20T13:33:45;158.07;;;85.20;;
78728;SDS011;68252;44.944;20.218;2023-12-20T13:36:11;170.82;;;87.70;;
78728;SDS011;68252;44.944;20.218;2023-12-20T13:38:39;194.30;;;93.95;;
78728;SDS011;68252;44.944;20.218;2023-12-20T13:41:05;191.90;;;97.03;;
78728;SDS011;68252;44.944;20.218;2023-12-20T13:43:31;188.18;;;97.63;;
78728;SDS011;68252;44.944;20.218;2023-12-20T13:45:58;184.75;;;94.00;;
78728;SDS011;68252;44.944;20.218;2023-12-20T13:48:24;175.45;;;87.80;;
78728;SDS011;68252;44.944;20.218;2023-12-20T13:50:50;183.98;;;90.07;;
78728;SDS011;68252;44.944;20.218;2023-12-20T13:53:17;193.05;;;94.75;;
78728;SDS011;68252;44.944;20.218;2023-12-20T13:55:44;197.50;;;94.22;;
78728;SDS011;68252;44.944;20.218;2023-12-20T13:58:10;173.13;;;89.88;;